createdAt,value
2018-07-21T00:01:13.578Z,97132.25
2018-07-21T00:03:43.198Z,97131.62
2018-07-21T00:06:13.518Z,97133.66
2018-07-21T00:08:42.983Z,97135.42
2018-07-21T00:11:12.516Z,97132.09
2018-07-21T00:13:42.225Z,97130.70
2018-07-21T00:16:11.639Z,97143.98
2018-07-21T00:18:41.173Z,97140.19
2018-07-21T00:21:10.587Z,97140.70
2018-07-21T00:23:40.098Z,97130.89
2018-07-21T00:26:09.679Z,97136.86
2018-07-21T00:28:39.749Z,97142.66
2018-07-21T00:31:09.165Z,97135.47
2018-07-21T00:33:38.676Z,97139.17
2018-07-21T00:36:08.388Z,97146.97
2018-07-21T00:38:37.828Z,97147.29
2018-07-21T00:41:07.321Z,97136.17
2018-07-21T00:43:36.750Z,97145.67
2018-07-21T00:46:07.377Z,97141.55
2018-07-21T00:48:37.381Z,97145.08
2018-07-21T00:51:06.974Z,97142.77
2018-07-21T00:53:36.394Z,97146.75
2018-07-21T00:56:05.820Z,97145.57
2018-07-21T00:58:35.330Z,97140.82
2018-07-21T01:01:04.720Z,97140.92
2018-07-21T01:03:34.210Z,97143.45
2018-07-21T01:06:03.726Z,97135.84
2018-07-21T01:08:33.152Z,97135.52
2018-07-21T01:11:02.613Z,97138.44
2018-07-21T01:13:32.251Z,97129.50
2018-07-21T01:16:02.351Z,97134.77
2018-07-21T01:18:31.999Z,97129.28
2018-07-21T01:21:01.502Z,97126.87
2018-07-21T01:23:31.020Z,97137.03
2018-07-21T01:26:00.498Z,97141.88
2018-07-21T01:28:30.710Z,97146.09
2018-07-21T01:31:00.192Z,97145.13
2018-07-21T01:33:29.690Z,97144.29
2018-07-21T01:35:59.062Z,97145.09
2018-07-21T01:38:28.681Z,97140.80
2018-07-21T01:40:58.638Z,97134.58
2018-07-21T01:43:28.071Z,97126.13
2018-07-21T01:45:57.510Z,97118.80
2018-07-21T01:48:27.278Z,97111.95
2018-07-21T01:50:56.638Z,97121.08
2018-07-21T01:53:26.156Z,97122.39
2018-07-21T01:55:55.620Z,97114.59
2018-07-21T01:58:25.212Z,97108.44
2018-07-21T02:00:54.574Z,97106.02
2018-07-21T02:03:24.162Z,97110.65
2018-07-21T02:05:53.669Z,97112.22
2018-07-21T02:08:23.302Z,97123.11
2018-07-21T02:10:52.976Z,97122.27
2018-07-21T02:13:22.812Z,97123.28
2018-07-21T02:15:52.283Z,97121.61
2018-07-21T02:18:21.828Z,97120.19
2018-07-21T02:20:51.280Z,97125.34
2018-07-21T02:23:21.555Z,97124.27
2018-07-21T02:25:50.972Z,97127.45
2018-07-21T02:28:20.556Z,97121.01
2018-07-21T02:30:50.565Z,97126.97
2018-07-21T02:33:20.075Z,97126.74
2018-07-21T02:35:49.618Z,97126.61
2018-07-21T02:38:19.341Z,97117.87
2018-07-21T02:40:48.827Z,97126.91
2018-07-21T02:43:18.457Z,97131.21
2018-07-21T02:45:47.997Z,97137.30
2018-07-21T02:48:17.575Z,97130.58
2018-07-21T02:50:47.110Z,97117.70
2018-07-21T02:53:16.597Z,97118.76
2018-07-21T02:55:46.433Z,97122.92
2018-07-21T02:58:15.793Z,97123.06
2018-07-21T03:00:45.192Z,97118.97
2018-07-21T03:03:14.771Z,97115.28
2018-07-21T03:05:44.239Z,97110.00
2018-07-21T03:08:13.833Z,97110.32
2018-07-21T03:10:43.233Z,97114.86
2018-07-21T03:13:12.797Z,97115.82
2018-07-21T03:15:42.327Z,97116.72
2018-07-21T03:18:12.208Z,97118.95
2018-07-21T03:20:41.671Z,97113.70
2018-07-21T03:23:11.223Z,97113.47
2018-07-21T03:25:40.726Z,97118.88
2018-07-21T03:28:10.138Z,97118.42
2018-07-21T03:30:39.613Z,97120.07
2018-07-21T03:33:09.296Z,97109.27
2018-07-21T03:35:38.551Z,97107.00
2018-07-21T03:38:08.105Z,97103.54
2018-07-21T03:40:37.516Z,97105.17
2018-07-21T03:43:07.200Z,97105.45
2018-07-21T03:45:36.727Z,97117.02
2018-07-21T03:48:06.333Z,97118.55
2018-07-21T03:50:36.010Z,97107.94
2018-07-21T03:53:06.411Z,97104.89
2018-07-21T03:55:35.852Z,97110.26
2018-07-21T03:58:05.434Z,97106.86
2018-07-21T04:00:35.489Z,97099.10
2018-07-21T04:03:05.029Z,97097.70
2018-07-21T04:05:34.483Z,97103.38
2018-07-21T04:08:04.004Z,97100.73
2018-07-21T04:10:33.393Z,97094.38
2018-07-21T04:13:02.785Z,97084.45
2018-07-21T04:15:32.222Z,97085.61
2018-07-21T04:18:02.173Z,97082.98
2018-07-21T04:20:31.756Z,97079.50
2018-07-21T04:23:01.514Z,97080.13
2018-07-21T04:25:30.873Z,97082.48
2018-07-21T04:28:02.006Z,97085.94
2018-07-21T04:30:31.391Z,97098.78
2018-07-21T04:33:00.979Z,97088.86
2018-07-21T04:35:31.276Z,97082.69
2018-07-21T04:38:01.346Z,97084.30
2018-07-21T04:40:30.750Z,97084.28
2018-07-21T04:43:00.289Z,97087.17
2018-07-21T04:45:29.622Z,97083.33
2018-07-21T04:47:59.200Z,97080.98
2018-07-21T04:50:28.733Z,97082.83
2018-07-21T04:52:58.291Z,97081.28
2018-07-21T04:55:27.691Z,97078.16
2018-07-21T04:57:57.191Z,97076.41
2018-07-21T05:00:26.632Z,97085.80
2018-07-21T05:02:56.374Z,97086.12
2018-07-21T05:05:26.003Z,97080.14
2018-07-21T05:07:55.613Z,97071.80
2018-07-21T05:10:25.036Z,97072.03
2018-07-21T05:12:54.466Z,97071.73
2018-07-21T05:15:26.576Z,97061.91
2018-07-21T05:17:56.243Z,97065.03
2018-07-21T05:20:25.623Z,97070.97
2018-07-21T05:22:55.104Z,97070.06
2018-07-21T05:25:24.511Z,97064.39
2018-07-21T05:27:53.982Z,97066.11
2018-07-21T05:30:23.367Z,97061.88
2018-07-21T05:32:53.622Z,97075.39
2018-07-21T05:35:23.063Z,97074.44
2018-07-21T05:37:54.546Z,97080.80
2018-07-21T05:40:24.102Z,97077.85
2018-07-21T05:42:53.502Z,97075.98
2018-07-21T05:45:22.943Z,97074.63
2018-07-21T05:47:52.382Z,97070.44
2018-07-21T05:50:22.003Z,97069.62
2018-07-21T05:52:51.831Z,97068.52
2018-07-21T05:55:21.326Z,97078.15
2018-07-21T05:57:51.918Z,97077.04
2018-07-21T06:00:21.375Z,97080.69
2018-07-21T06:02:51.045Z,97073.09
2018-07-21T06:05:20.564Z,97072.50
2018-07-21T06:07:49.964Z,97070.70
2018-07-21T06:10:19.522Z,97066.20
2018-07-21T06:12:49.035Z,97060.92
2018-07-21T06:15:18.596Z,97070.39
2018-07-21T06:17:48.019Z,97088.93
2018-07-21T06:20:17.636Z,97081.14
2018-07-21T06:22:47.036Z,97076.03
2018-07-21T06:25:16.816Z,97076.70
2018-07-21T06:27:46.301Z,97090.92
2018-07-21T06:30:15.819Z,97098.71
2018-07-21T06:32:45.560Z,97100.53
2018-07-21T06:35:15.119Z,97099.69
2018-07-21T06:37:44.858Z,97097.41
2018-07-21T06:40:14.419Z,97094.75
2018-07-21T06:42:44.019Z,97084.13
2018-07-21T06:45:13.459Z,97075.84
2018-07-21T06:47:42.859Z,97074.30
2018-07-21T06:50:12.318Z,97079.08
2018-07-21T06:52:41.758Z,97081.53
2018-07-21T06:55:13.018Z,97092.00
2018-07-21T06:57:44.718Z,97094.98
2018-07-21T07:00:14.198Z,97102.80
2018-07-21T07:02:43.598Z,97105.64
2018-07-21T07:05:13.158Z,97097.52
2018-07-21T07:07:42.559Z,97096.17
2018-07-21T07:10:12.017Z,97094.83
2018-07-21T07:12:41.597Z,97087.96
2018-07-21T07:15:11.416Z,97085.10
2018-07-21T07:17:40.882Z,97090.50
2018-07-21T07:20:10.404Z,97106.47
2018-07-21T07:22:39.838Z,97105.54
2018-07-21T07:25:09.678Z,97107.55
2018-07-21T07:27:39.498Z,97118.48
2018-07-21T07:30:09.204Z,97117.96
2018-07-21T07:32:38.598Z,97113.17
2018-07-21T07:35:08.560Z,97108.27
2018-07-21T07:37:37.978Z,97103.66
2018-07-21T07:40:08.399Z,97103.16
2018-07-21T07:42:37.860Z,97099.75
2018-07-21T07:45:07.346Z,97108.72
2018-07-21T07:47:36.698Z,97115.09
2018-07-21T07:50:06.798Z,97109.86
2018-07-21T07:52:36.238Z,97115.05
2018-07-21T07:55:05.743Z,97100.19
2018-07-21T07:57:35.098Z,97113.05
2018-07-21T08:00:04.458Z,97099.21
2018-07-21T08:02:34.058Z,97092.18
2018-07-21T08:05:03.518Z,97087.63
2018-07-21T08:07:33.039Z,97098.00
2018-07-21T08:10:02.618Z,97093.23
2018-07-21T08:12:32.018Z,97090.09
2018-07-21T08:15:01.578Z,97072.78
2018-07-21T08:17:31.079Z,97069.24
2018-07-21T08:20:04.208Z,97064.81
2018-07-21T08:22:34.300Z,97071.83
2018-07-21T08:25:04.027Z,97067.37
2018-07-21T08:27:33.253Z,97063.14
2018-07-21T08:30:02.479Z,97069.03
2018-07-21T08:32:31.752Z,97070.05
2018-07-21T08:35:01.310Z,97071.27
2018-07-21T08:37:30.347Z,97076.84
2018-07-21T08:39:59.839Z,97073.42
2018-07-21T08:42:29.204Z,97085.22
2018-07-21T08:44:58.729Z,97092.59
2018-07-21T08:47:28.088Z,97087.12
2018-07-21T08:49:57.630Z,97087.45
2018-07-21T08:52:27.241Z,97084.45
2018-07-21T08:54:57.926Z,97088.15
2018-07-21T08:57:27.426Z,97090.13
2018-07-21T08:59:56.890Z,97091.95
2018-07-21T09:02:26.407Z,97079.70
2018-07-21T09:04:56.048Z,97083.97
2018-07-21T09:07:25.472Z,97068.39
2018-07-21T09:09:55.265Z,97055.81
2018-07-21T09:12:24.724Z,97051.63
2018-07-21T09:14:54.186Z,97051.81
2018-07-21T09:17:23.584Z,97054.88
2018-07-21T09:19:54.206Z,97060.91
2018-07-21T09:22:23.746Z,97059.59
2018-07-21T09:24:53.204Z,97052.41
2018-07-21T09:27:22.666Z,97049.28
2018-07-21T09:29:52.205Z,97043.05
2018-07-21T09:32:21.512Z,97049.77
2018-07-21T09:34:50.987Z,97056.34
2018-07-21T09:37:20.613Z,97050.80
2018-07-21T09:39:50.404Z,97051.03
2018-07-21T09:42:19.905Z,97046.98
2018-07-21T09:44:49.567Z,97048.21
2018-07-21T09:47:18.986Z,97041.85
2018-07-21T09:49:48.766Z,97040.31
2018-07-21T09:52:18.323Z,97040.84
2018-07-21T09:54:47.926Z,97045.34
2018-07-21T09:57:17.567Z,97042.87
2018-07-21T09:59:47.031Z,97049.15
2018-07-21T10:02:16.405Z,97041.24
2018-07-21T10:04:45.831Z,97035.66
2018-07-21T10:07:15.587Z,97033.51
2018-07-21T10:09:45.109Z,97030.14
2018-07-21T10:12:14.556Z,97023.86
2018-07-21T10:14:44.025Z,97021.17
2018-07-21T10:17:13.665Z,97022.83
2018-07-21T10:19:43.204Z,97017.16
2018-07-21T10:22:12.656Z,97012.52
2018-07-21T10:24:47.425Z,97014.28
2018-07-21T10:27:17.344Z,97006.45
2018-07-21T10:29:47.024Z,97004.38
2018-07-21T10:32:16.466Z,97001.56
2018-07-21T10:34:46.165Z,97005.55
2018-07-21T10:37:15.609Z,97005.02
2018-07-21T10:39:45.346Z,97001.44
2018-07-21T10:42:14.785Z,97000.10
2018-07-21T10:44:44.864Z,96993.48
2018-07-21T10:47:14.325Z,96994.35
2018-07-21T10:49:43.846Z,96998.63
2018-07-21T10:52:13.143Z,96995.48
2018-07-21T10:54:42.584Z,96989.28
2018-07-21T10:57:12.135Z,96987.66
2018-07-21T10:59:42.138Z,96987.13
2018-07-21T11:02:11.585Z,96992.38
2018-07-21T11:04:41.139Z,96986.77
2018-07-21T11:07:10.480Z,96995.80
2018-07-21T11:09:40.557Z,96994.48
2018-07-21T11:12:09.965Z,96984.81
2018-07-21T11:14:39.417Z,96981.26
2018-07-21T11:17:08.936Z,96976.09
2018-07-21T11:19:38.376Z,96983.36
2018-07-21T11:22:08.095Z,96973.48
2018-07-21T11:24:37.478Z,96974.56
2018-07-21T11:27:06.917Z,96969.92
2018-07-21T11:29:36.376Z,96977.75
2018-07-21T11:32:05.918Z,96980.67
2018-07-21T11:34:35.391Z,96971.85
2018-07-21T11:37:05.028Z,96966.86
2018-07-21T11:39:34.482Z,96968.30
2018-07-21T11:42:04.137Z,96974.27
2018-07-21T11:44:33.724Z,96977.25
2018-07-21T11:47:03.838Z,96982.57
2018-07-21T11:49:33.222Z,96973.41
2018-07-21T11:52:02.869Z,96979.84
2018-07-21T11:54:32.212Z,96967.23
2018-07-21T11:57:02.978Z,96957.63
2018-07-21T11:59:33.973Z,96950.23
2018-07-21T12:02:03.592Z,96947.75
2018-07-21T12:04:32.951Z,96935.64
2018-07-21T12:07:02.531Z,96936.09
2018-07-21T12:09:31.973Z,96935.49
2018-07-21T12:12:01.508Z,96952.66
2018-07-21T12:14:30.896Z,96964.10
2018-07-21T12:17:00.309Z,96962.30
2018-07-21T12:19:29.691Z,96958.80
2018-07-21T12:21:59.313Z,96955.88
2018-07-21T12:24:28.769Z,96948.98
2018-07-21T12:26:58.319Z,96950.30
2018-07-21T12:29:27.838Z,96943.13
2018-07-21T12:31:57.602Z,96944.11
2018-07-21T12:34:26.998Z,96943.19
2018-07-21T12:36:56.438Z,96935.98
2018-07-21T12:39:26.178Z,96922.44
2018-07-21T12:41:55.638Z,96909.88
2018-07-21T12:44:25.026Z,96908.48
2018-07-21T12:46:54.506Z,96902.08
2018-07-21T12:49:24.000Z,96907.11
2018-07-21T12:51:53.639Z,96913.22
2018-07-21T12:54:23.041Z,96909.94
2018-07-21T12:56:52.622Z,96900.08
2018-07-21T12:59:22.319Z,96899.95
2018-07-21T13:01:51.959Z,96891.16
2018-07-21T13:04:21.479Z,96880.30
2018-07-21T13:06:51.037Z,96878.09
2018-07-21T13:09:20.639Z,96874.12
2018-07-21T13:11:50.140Z,96861.86
2018-07-21T13:14:19.582Z,96868.25
2018-07-21T13:16:49.199Z,96863.38
2018-07-21T13:19:18.840Z,96868.21
2018-07-21T13:21:48.619Z,96864.23
2018-07-21T13:24:17.980Z,96868.09
2018-07-21T13:26:47.550Z,96870.58
2018-07-21T13:29:17.042Z,96876.13
2018-07-21T13:31:46.710Z,96881.23
2018-07-21T13:34:16.242Z,96893.45
2018-07-21T13:36:45.819Z,96882.63
2018-07-21T13:39:15.169Z,96877.58
2018-07-21T13:41:44.821Z,96864.55
2018-07-21T13:44:14.497Z,96861.84
2018-07-21T13:46:44.008Z,96858.84
2018-07-21T13:49:13.340Z,96850.57
2018-07-21T13:51:42.940Z,96851.36
2018-07-21T13:54:12.563Z,96851.11
2018-07-21T13:56:42.099Z,96838.94
2018-07-21T13:59:11.520Z,96838.34
2018-07-21T14:01:41.540Z,96845.02
2018-07-21T14:04:10.940Z,96839.14
2018-07-21T14:06:40.381Z,96847.16
2018-07-21T14:09:10.948Z,96843.13
2018-07-21T14:11:40.563Z,96838.13
2018-07-21T14:14:10.081Z,96837.19
2018-07-21T14:16:39.541Z,96829.41
2018-07-21T14:19:08.920Z,96833.14
2018-07-21T14:21:38.360Z,96834.77
2018-07-21T14:24:07.823Z,96830.05
2018-07-21T14:26:37.241Z,96834.85
2018-07-21T14:29:07.262Z,96833.09
2018-07-21T14:31:36.720Z,96828.88
2018-07-21T14:34:06.200Z,96836.98
2018-07-21T14:36:35.708Z,96837.55
2018-07-21T14:39:07.042Z,96834.96
2018-07-21T14:41:37.466Z,96823.30
2018-07-21T14:44:06.880Z,96828.61
2018-07-21T14:46:36.560Z,96825.03
2018-07-21T14:49:06.724Z,96836.69
2018-07-21T14:51:36.760Z,96834.59
2018-07-21T14:54:06.368Z,96833.55
2018-07-21T14:56:35.925Z,96833.11
2018-07-21T14:59:05.525Z,96827.95
2018-07-21T15:01:35.121Z,96841.94
2018-07-21T15:04:04.563Z,96839.50
2018-07-21T15:06:34.096Z,96842.36
2018-07-21T15:09:03.797Z,96841.47
2018-07-21T15:11:33.311Z,96847.64
2018-07-21T15:14:03.327Z,96846.80
2018-07-21T15:16:32.931Z,96845.82
2018-07-21T15:19:02.439Z,96848.91
2018-07-21T15:21:35.546Z,96838.89
2018-07-21T15:24:05.070Z,96833.23
2018-07-21T15:26:34.646Z,96839.17
2018-07-21T15:29:04.285Z,96848.13
2018-07-21T15:31:34.056Z,96838.83
2018-07-21T15:34:03.580Z,96853.36
2018-07-21T15:36:33.138Z,96850.70
2018-07-21T15:39:02.531Z,96847.14
2018-07-21T15:41:32.239Z,96849.53
2018-07-21T15:44:01.759Z,96884.84
2018-07-21T15:46:31.278Z,96844.11
2018-07-21T15:49:01.040Z,96854.39
2018-07-21T15:51:30.578Z,96841.13
2018-07-21T15:54:00.058Z,96850.65
2018-07-21T15:56:29.666Z,96847.10
2018-07-21T15:58:59.118Z,96852.59
2018-07-21T16:01:28.786Z,96847.17
2018-07-21T16:03:58.351Z,96840.91
2018-07-21T16:06:27.905Z,96839.58
2018-07-21T16:08:57.311Z,96831.91
2018-07-21T16:11:27.089Z,96820.49
2018-07-21T16:13:56.549Z,96825.54
2018-07-21T16:16:27.108Z,96822.19
2018-07-21T16:18:56.550Z,96814.52
2018-07-21T16:21:26.877Z,96807.14
2018-07-21T16:23:56.179Z,96796.62
2018-07-21T16:26:25.650Z,96796.02
2018-07-21T16:28:55.109Z,96791.89
2018-07-21T16:31:24.616Z,96794.02
2018-07-21T16:33:54.077Z,96789.88
2018-07-21T16:36:23.790Z,96778.80
2018-07-21T16:38:53.330Z,96797.59
2018-07-21T16:41:22.969Z,96782.20
2018-07-21T16:43:52.389Z,96779.55
2018-07-21T16:46:22.985Z,96765.86
2018-07-21T16:48:52.388Z,96765.81
2018-07-21T16:51:22.769Z,96754.55
2018-07-21T16:53:52.248Z,96761.95
2018-07-21T16:56:22.569Z,96765.88
2018-07-21T16:58:52.223Z,96763.33
2018-07-21T17:01:21.669Z,96761.95
2018-07-21T17:03:51.238Z,96770.91
2018-07-21T17:06:20.809Z,96755.80
2018-07-21T17:08:50.320Z,96756.48
2018-07-21T17:11:19.724Z,96753.75
2018-07-21T17:13:49.368Z,96750.11
2018-07-21T17:16:19.624Z,96754.86
2018-07-21T17:18:49.285Z,96758.19
2018-07-21T17:21:18.773Z,96749.88
2018-07-21T17:23:48.345Z,96746.95
2018-07-21T17:26:17.872Z,96750.27
2018-07-21T17:28:47.485Z,96765.36
2018-07-21T17:31:16.924Z,96761.76
2018-07-21T17:33:46.455Z,96762.58
2018-07-21T17:36:15.813Z,96759.16
2018-07-21T17:38:45.356Z,96749.53
2018-07-21T17:41:15.273Z,96766.75
2018-07-21T17:43:44.748Z,96761.17
2018-07-21T17:46:14.148Z,96771.45
2018-07-21T17:48:43.647Z,96770.09
2018-07-21T17:51:12.968Z,96777.41
2018-07-21T17:53:42.551Z,96776.09
2018-07-21T17:56:11.968Z,96784.22
2018-07-21T17:58:41.449Z,96787.36
2018-07-21T18:01:10.892Z,96794.64
2018-07-21T18:03:40.501Z,96805.99
2018-07-21T18:06:10.209Z,96800.55
2018-07-21T18:08:40.788Z,96807.75
2018-07-21T18:11:10.411Z,96807.75
2018-07-21T18:13:40.405Z,96803.52
2018-07-21T18:16:10.092Z,96812.13
2018-07-21T18:18:39.783Z,96810.34
2018-07-21T18:21:09.787Z,96815.72
2018-07-21T18:23:39.411Z,96813.13
2018-07-21T18:26:09.350Z,96810.33
2018-07-21T18:28:39.419Z,96809.12
2018-07-21T18:31:09.196Z,96812.70
2018-07-21T18:33:38.703Z,96820.22
2018-07-21T18:36:08.320Z,96826.62
2018-07-21T18:38:38.144Z,96819.79
2018-07-21T18:41:08.583Z,96827.61
2018-07-21T18:43:38.630Z,96826.95
2018-07-21T18:46:08.661Z,96828.38
2018-07-21T18:48:38.194Z,96828.89
2018-07-21T18:51:10.055Z,96833.02
2018-07-21T18:53:39.671Z,96829.87
2018-07-21T18:56:09.700Z,96828.50
2018-07-21T18:58:39.442Z,96823.55
2018-07-21T19:01:09.512Z,96817.66
2018-07-21T19:03:39.173Z,96815.02
2018-07-21T19:06:08.704Z,96827.70
2018-07-21T19:08:43.422Z,96826.19
2018-07-21T19:11:13.402Z,96822.55
2018-07-21T19:13:42.963Z,96819.66
2018-07-21T19:16:17.583Z,96813.68
2018-07-21T19:18:47.202Z,96809.67
2018-07-21T19:21:18.141Z,96807.14
2018-07-21T19:23:48.582Z,96815.18
2018-07-21T19:26:22.832Z,96815.18
2018-07-21T19:28:53.001Z,96816.67
2018-07-21T19:31:22.734Z,96817.63
2018-07-21T19:33:52.257Z,96821.86
2018-07-21T19:36:21.695Z,96821.74
2018-07-21T19:38:51.414Z,96825.81
2018-07-21T19:41:25.925Z,96822.52
2018-07-21T19:43:55.375Z,96819.62
2018-07-21T19:46:24.816Z,96828.13
2018-07-21T19:48:54.421Z,96824.78
2018-07-21T19:51:23.852Z,96834.77
2018-07-21T19:53:53.414Z,96831.75
2018-07-21T19:56:22.691Z,96836.19
2018-07-21T19:58:52.556Z,96849.59
2018-07-21T20:01:22.372Z,96849.58
2018-07-21T20:03:51.772Z,96862.81
2018-07-21T20:06:21.236Z,96860.13
2018-07-21T20:08:50.940Z,96862.11
2018-07-21T20:11:20.380Z,96862.17
2018-07-21T20:13:50.081Z,96862.84
2018-07-21T20:16:19.703Z,96865.66
2018-07-21T20:18:49.285Z,96870.23
2018-07-21T20:21:19.093Z,96865.33
2018-07-21T20:23:48.547Z,96864.19
2018-07-21T20:26:18.305Z,96861.92
2018-07-21T20:28:47.850Z,96864.16
2018-07-21T20:31:18.203Z,96861.86
2018-07-21T20:33:47.733Z,96860.23
2018-07-21T20:36:17.119Z,96863.58
2018-07-21T20:38:46.638Z,96871.70
2018-07-21T20:41:17.479Z,96871.75
2018-07-21T20:43:47.043Z,96869.44
2018-07-21T20:46:16.440Z,96869.98
2018-07-21T20:48:45.920Z,96867.30
2018-07-21T20:51:15.322Z,96873.12
2018-07-21T20:53:44.917Z,96880.77
2018-07-21T20:56:14.525Z,96881.75
2018-07-21T20:58:44.129Z,96898.50
2018-07-21T21:01:13.582Z,96909.06
2018-07-21T21:03:43.389Z,96911.06
2018-07-21T21:06:13.425Z,96915.07
2018-07-21T21:08:42.943Z,96918.88
2018-07-21T21:11:12.555Z,96930.14
2018-07-21T21:13:42.142Z,96935.30
2018-07-21T21:16:11.582Z,96932.64
2018-07-21T21:18:41.025Z,96941.26
2018-07-21T21:21:10.480Z,96942.76
2018-07-21T21:23:39.933Z,96949.55
2018-07-21T21:26:09.238Z,96950.53
2018-07-21T21:28:38.802Z,96948.05
2018-07-21T21:31:08.217Z,96948.07
2018-07-21T21:33:37.663Z,96957.00
2018-07-21T21:36:07.108Z,96959.50
2018-07-21T21:38:36.469Z,96952.56
2018-07-21T21:41:06.133Z,96957.17
2018-07-21T21:43:35.610Z,96955.03
2018-07-21T21:46:05.183Z,96953.89
2018-07-21T21:48:34.724Z,96956.69
2018-07-21T21:51:04.429Z,96959.66
2018-07-21T21:53:33.788Z,96956.85
2018-07-21T21:56:03.290Z,96951.58
2018-07-21T21:58:32.706Z,96956.20
2018-07-21T22:01:05.122Z,96954.38
2018-07-21T22:03:34.890Z,96958.34
2018-07-21T22:06:04.538Z,96954.21
2018-07-21T22:08:34.806Z,96959.19
2018-07-21T22:11:04.891Z,96952.39
2018-07-21T22:13:34.725Z,96945.28
2018-07-21T22:16:04.153Z,96947.75
2018-07-21T22:18:33.982Z,96951.53
2018-07-21T22:21:03.448Z,96961.30
2018-07-21T22:23:32.866Z,96964.09
2018-07-21T22:26:02.285Z,96960.29
2018-07-21T22:28:31.763Z,96965.25
2018-07-21T22:31:01.535Z,96965.58
2018-07-21T22:33:31.011Z,96972.86
2018-07-21T22:36:00.504Z,96974.51
2018-07-21T22:38:30.141Z,96974.66
2018-07-21T22:40:59.528Z,96974.31
2018-07-21T22:43:29.272Z,96979.47
2018-07-21T22:45:58.679Z,96970.69
2018-07-21T22:48:28.160Z,96964.23
2018-07-21T22:50:57.661Z,96965.22
2018-07-21T22:53:27.123Z,96959.91
2018-07-21T22:55:56.969Z,96967.02
2018-07-21T22:58:26.490Z,96959.09
2018-07-21T23:00:55.928Z,96963.53
2018-07-21T23:03:25.883Z,96964.84
2018-07-21T23:05:55.417Z,96965.70
2018-07-21T23:08:24.890Z,96964.84
2018-07-21T23:23:04.468Z,96964.17
2018-07-21T23:25:34.189Z,96969.28
2018-07-21T23:28:04.083Z,96964.02
2018-07-21T23:30:33.772Z,96966.45
2018-07-21T23:33:03.608Z,96968.91
2018-07-21T23:35:34.164Z,96966.92
2018-07-21T23:38:04.146Z,96959.81
2018-07-21T23:40:34.292Z,96957.17
2018-07-21T23:43:04.083Z,96948.39
2018-07-21T23:45:33.862Z,96957.14
2018-07-21T23:48:03.505Z,96956.60
2018-07-21T23:50:33.354Z,96955.59
2018-07-21T23:53:03.186Z,96957.42
2018-07-21T23:55:33.022Z,96954.94
2018-07-21T23:58:02.848Z,96953.61
